Time;durP1;ratioP1;P1;durP2;ratioP2;P2;SDS_P1;SDS_P2;PMS_P1;PMS_P2;Temp;Humidity;BMP_temperature;BMP_pressure;BME280_temperature;BME280_humidity;BME280_pressure;Samples;Min_cycle;Max_cycle;Signal;HPM_P1;HPM_P2
2020/12/31 00:01:02;;;;;;;2.20;2.00;;;;;;;4.60;63.82;94774.25;5067084;28;20244;-75
2020/12/31 00:03:28;;;;;;;2.27;2.07;;;;;;;4.57;63.84;94774.59;5066915;28;20679;-77
2020/12/31 00:05:54;;;;;;;2.30;2.00;;;;;;;4.60;63.83;94774.25;5067076;28;20257;-74
2020/12/31 00:08:20;;;;;;;2.27;2.07;;;;;;;4.54;64.43;94765.50;5066989;28;20688;-79
2020/12/31 00:10:47;;;;;;;2.97;2.47;;;;;;;4.55;64.00;94768.84;5066597;28;20258;-77
2020/12/31 00:13:13;;;;;;;1.90;1.80;;;;;;;4.51;63.92;94771.69;5061056;28;20250;-75
2020/12/31 00:15:39;;;;;;;2.33;2.13;;;;;;;4.49;64.14;94777.91;5070390;28;20196;-75
2020/12/31 00:18:05;;;;;;;2.07;1.97;;;;;;;4.47;64.40;94772.97;5070346;28;20205;-77
2020/12/31 00:20:31;;;;;;;2.20;2.00;;;;;;;4.46;64.61;94773.94;5070155;28;20735;-74
2020/12/31 00:22:57;;;;;;;2.20;2.00;;;;;;;4.46;64.18;94780.78;5070273;28;20197;-78
2020/12/31 00:25:23;;;;;;;2.30;2.10;;;;;;;4.47;64.07;94778.06;5070356;28;20198;-77
2020/12/31 00:27:53;;;;;;;2.60;1.97;;;;;;;4.46;64.56;94771.38;5070528;28;20730;-77
2020/12/31 00:30:19;;;;;;;2.13;1.93;;;;;;;4.43;64.24;94773.44;5070219;28;20820;-77
2020/12/31 00:32:45;;;;;;;2.40;2.20;;;;;;;4.40;64.49;94773.78;5070431;28;20196;-75
2020/12/31 00:35:14;;;;;;;2.27;2.07;;;;;;;4.40;64.60;94774.59;5069893;28;20193;-77
2020/12/31 00:37:40;;;;;;;2.43;2.20;;;;;;;4.34;64.87;94770.09;5070237;28;20208;-75
2020/12/31 00:40:06;;;;;;;2.20;2.00;;;;;;;4.25;64.89;94777.88;5069577;28;20217;-78
2020/12/31 00:42:33;;;;;;;2.63;2.43;;;;;;;4.25;65.06;94773.59;5070290;28;20204;-78
2020/12/31 00:44:59;;;;;;;2.47;2.20;;;;;;;4.18;64.81;94776.94;5069956;28;20274;-75
2020/12/31 00:47:25;;;;;;;2.47;2.10;;;;;;;4.15;65.06;94775.50;5070205;28;20247;-77
2020/12/31 00:49:51;;;;;;;2.37;2.17;;;;;;;4.19;65.14;94778.53;5069896;28;20197;-78
2020/12/31 00:52:17;;;;;;;2.60;2.20;;;;;;;4.23;65.00;94774.72;5069470;28;20551;-74
2020/12/31 00:54:43;;;;;;;4.70;2.60;;;;;;;4.20;65.05;94782.69;5069512;28;20201;-77
2020/12/31 00:57:09;;;;;;;3.33;2.30;;;;;;;4.26;64.51;94782.03;5069947;28;20272;-75
2020/12/31 00:59:35;;;;;;;2.33;2.13;;;;;;;4.26;64.71;94779.47;5070144;28;20327;-75
2020/12/31 01:02:02;;;;;;;3.33;2.50;;;;;;;4.28;64.80;94782.66;5069376;28;20243;-76
2020/12/31 01:04:28;;;;;;;2.60;2.40;;;;;;;4.27;64.49;94784.41;5069879;28;20205;-75
2020/12/31 01:06:53;;;;;;;2.67;2.47;;;;;;;4.22;64.66;94786.66;5069176;28;20201;-79
2020/12/31 01:09:19;;;;;;;2.90;2.53;;;;;;;4.23;64.72;94787.47;5069843;28;20267;-78
2020/12/31 01:11:45;;;;;;;3.03;2.50;;;;;;;4.15;64.73;94776.28;5069328;28;20217;-77
2020/12/31 01:14:11;;;;;;;2.77;2.57;;;;;;;4.11;64.97;94782.66;5069421;28;20265;-75
2020/12/31 01:16:37;;;;;;;3.83;2.47;;;;;;;4.15;64.86;94783.13;5069540;28;20193;-77
2020/12/31 01:19:04;;;;;;;2.80;2.60;;;;;;;4.18;64.95;94787.13;5069642;28;20223;-77
2020/12/31 01:21:30;;;;;;;2.70;2.43;;;;;;;4.13;64.63;94782.50;5068949;28;20606;-78
2020/12/31 01:23:56;;;;;;;2.80;2.60;;;;;;;4.12;64.56;94786.00;5069012;28;20217;-77
2020/12/31 01:26:31;;;;;;;2.90;2.60;;;;;;;4.10;65.17;94782.81;5069169;28;20189;-77
2020/12/31 01:28:57;;;;;;;3.07;2.77;;;;;;;4.12;65.04;94778.34;5069233;28;20814;-78
2020/12/31 01:31:23;;;;;;;2.90;2.70;;;;;;;4.14;64.83;94781.53;5069209;28;20220;-77
2020/12/31 01:33:49;;;;;;;3.40;3.10;;;;;;;4.11;65.01;94780.09;5068789;28;20201;-77
2020/12/31 01:36:15;;;;;;;2.73;2.50;;;;;;;4.15;64.93;94788.25;5069084;28;20597;-78
2020/12/31 01:38:41;;;;;;;2.90;2.67;;;;;;;4.16;64.45;94777.09;5069469;28;20231;-77
2020/12/31 01:41:07;;;;;;;3.07;2.77;;;;;;;4.12;64.56;94778.34;5068429;28;20224;-75
2020/12/31 01:43:33;;;;;;;3.17;2.70;;;;;;;4.14;64.35;94779.00;5068888;28;20236;-75
2020/12/31 01:45:59;;;;;;;3.20;2.90;;;;;;;4.10;64.43;94780.25;5068532;28;20197;-78
2020/12/31 01:48:25;;;;;;;2.87;2.67;;;;;;;4.18;64.74;94766.75;5068762;28;20207;-75
2020/12/31 01:50:51;;;;;;;2.90;2.70;;;;;;;4.16;64.44;94772.00;5068829;28;20225;-79
2020/12/31 01:53:18;;;;;;;3.10;2.80;;;;;;;4.14;64.65;94763.72;5068467;28;20626;-79
2020/12/31 01:55:44;;;;;;;3.53;2.80;;;;;;;4.11;64.64;94772.47;5068152;28;20205;-77
2020/12/31 01:58:10;;;;;;;3.30;2.83;;;;;;;4.12;64.93;94763.88;5068728;28;20193;-78
2020/12/31 02:00:36;;;;;;;3.00;2.80;;;;;;;4.14;64.65;94758.63;5068735;28;20225;-78
2020/12/31 02:03:02;;;;;;;3.87;2.90;;;;;;;4.13;64.97;94757.03;5068684;28;20188;-78
2020/12/31 02:05:28;;;;;;;3.30;3.00;;;;;;;4.10;64.83;94760.69;5068390;28;20921;-78
2020/12/31 02:07:53;;;;;;;4.03;2.90;;;;;;;4.08;64.45;94754.94;5068567;28;20203;-78
2020/12/31 02:10:20;;;;;;;3.30;3.00;;;;;;;4.05;64.54;94757.00;5067779;28;20202;-79
2020/12/31 02:12:46;;;;;;;3.63;3.33;;;;;;;4.04;64.71;94768.94;5068312;28;20205;-78
2020/12/31 02:15:15;;;;;;;3.30;3.00;;;;;;;4.00;64.35;94760.03;5067846;28;20703;-75
2020/12/31 02:17:43;;;;;;;3.33;3.00;;;;;;;4.00;64.52;94756.69;5068539;28;20667;-78
2020/12/31 02:20:09;;;;;;;4.47;3.30;;;;;;;3.96;64.50;94763.84;5067987;28;20231;-78
2020/12/31 02:22:36;;;;;;;3.07;2.77;;;;;;;3.97;64.80;94762.09;5068418;28;20197;-74
2020/12/31 02:25:03;;;;;;;3.27;2.87;;;;;;;3.96;64.93;94753.66;5067595;28;20865;-75
2020/12/31 02:27:28;;;;;;;4.23;3.30;;;;;;;3.97;64.28;94754.47;5068026;28;20205;-75
2020/12/31 02:29:54;;;;;;;3.40;3.10;;;;;;;3.90;64.41;94756.03;5068013;28;20201;-75
2020/12/31 02:32:20;;;;;;;4.07;3.03;;;;;;;3.90;64.36;94754.28;5068293;28;20231;-74
2020/12/31 02:34:46;;;;;;;3.30;2.83;;;;;;;3.88;64.41;94753.63;5067099;28;20193;-75
2020/12/31 02:37:12;;;;;;;3.27;2.97;;;;;;;3.86;64.51;94762.38;5067936;28;20204;-77
2020/12/31 02:39:41;;;;;;;3.57;3.27;;;;;;;3.87;64.35;94759.66;5067732;28;20220;-75
2020/12/31 02:42:07;;;;;;;3.13;2.87;;;;;;;3.90;64.94;94761.91;5067973;28;20296;-78
2020/12/31 02:44:32;;;;;;;3.20;2.90;;;;;;;3.89;64.49;94759.53;5067300;28;20218;-78
2020/12/31 02:46:58;;;;;;;3.07;2.87;;;;;;;3.88;64.77;94755.38;5067507;28;20608;-74
2020/12/31 02:49:24;;;;;;;3.50;3.20;;;;;;;3.89;64.39;94750.13;5067933;28;20199;-75
2020/12/31 02:51:50;;;;;;;3.50;3.20;;;;;;;3.86;64.42;94745.34;5067823;28;20281;-75
2020/12/31 02:54:16;;;;;;;3.40;3.00;;;;;;;3.87;64.53;94751.25;5067079;28;20676;-77
2020/12/31 02:56:43;;;;;;;3.60;3.30;;;;;;;3.84;64.57;94746.47;5067671;28;20207;-75
2020/12/31 02:59:08;;;;;;;3.07;2.73;;;;;;;3.80;65.02;94746.00;5067695;28;20216;-78
2020/12/31 03:01:34;;;;;;;3.30;3.00;;;;;;;3.75;64.78;94748.19;5067534;28;20225;-77
2020/12/31 03:04:00;;;;;;;3.47;3.17;;;;;;;3.77;65.05;94749.63;5067051;28;20725;-75
2020/12/31 03:06:26;;;;;;;4.07;3.30;;;;;;;3.78;65.15;94742.81;5067418;28;20211;-76
2020/12/31 03:08:52;;;;;;;3.30;3.00;;;;;;;3.81;65.13;94743.28;5067173;28;20556;-76
2020/12/31 03:11:20;;;;;;;3.10;2.80;;;;;;;3.83;64.50;94752.53;5067468;28;20312;-78
2020/12/31 03:13:47;;;;;;;3.63;3.00;;;;;;;3.82;64.88;94759.38;5067371;28;20196;-79
2020/12/31 03:16:13;;;;;;;3.30;3.00;;;;;;;3.79;64.76;94755.38;5067201;28;20196;-77
2020/12/31 03:18:39;;;;;;;3.77;3.47;;;;;;;3.74;64.79;94756.78;5067270;28;20217;-75
2020/12/31 03:21:05;;;;;;;3.30;3.00;;;;;;;3.76;64.98;94754.88;5067836;28;20643;-75
2020/12/31 03:23:31;;;;;;;3.50;3.20;;;;;;;3.76;65.20;94748.03;5066853;28;20205;-75
2020/12/31 03:25:57;;;;;;;3.17;2.87;;;;;;;3.78;64.68;94746.16;5067340;28;20208;-77
2020/12/31 03:28:23;;;;;;;3.20;2.90;;;;;;;3.77;64.61;94739.47;5067463;28;20780;-74
2020/12/31 03:30:50;;;;;;;3.40;3.10;;;;;;;3.78;64.75;94738.50;5067159;28;20768;-78
2020/12/31 03:33:16;;;;;;;3.60;3.30;;;;;;;3.80;64.30;94744.25;5066924;28;20486;-79
2020/12/31 03:35:43;;;;;;;2.90;2.70;;;;;;;3.78;64.49;94738.50;5066773;28;20631;-75
2020/12/31 03:38:10;;;;;;;3.30;3.00;;;;;;;3.74;64.52;94747.41;5067364;28;20230;-77
2020/12/31 03:40:37;;;;;;;3.87;3.13;;;;;;;3.69;64.63;94748.81;5067145;28;20231;-77
2020/12/31 03:43:03;;;;;;;3.27;2.97;;;;;;;3.59;64.86;94745.59;5067257;28;20254;-78
2020/12/31 03:45:29;;;;;;;3.23;2.93;;;;;;;3.58;64.71;94746.56;5066700;28;20189;-75
2020/12/31 03:47:56;;;;;;;3.20;2.90;;;;;;;3.57;64.88;94747.50;5070890;28;20193;-75
2020/12/31 03:50:22;;;;;;;3.40;3.10;;;;;;;3.53;65.16;94739.38;5071313;28;20216;-78
2020/12/31 03:52:48;;;;;;;3.60;3.30;;;;;;;3.55;64.72;94734.13;5071235;28;20200;-75
2020/12/31 03:55:15;;;;;;;3.33;2.77;;;;;;;3.54;65.13;94738.44;5070916;28;20248;-76
2020/12/31 03:57:41;;;;;;;3.13;2.53;;;;;;;3.54;65.33;94738.44;5070678;28;20196;-77
2020/12/31 04:00:06;;;;;;;3.10;2.80;;;;;;;3.51;64.72;94723.47;5071047;28;20280;-74
2020/12/31 04:02:32;;;;;;;3.17;2.70;;;;;;;3.40;64.93;94722.00;5070637;28;20224;-77
2020/12/31 04:04:59;;;;;;;3.00;2.70;;;;;;;3.40;65.15;94718.69;5070810;28;20205;-74
2020/12/31 04:07:26;;;;;;;2.80;2.50;;;;;;;3.35;65.17;94725.97;5070406;28;20668;-77
2020/12/31 04:09:52;;;;;;;4.53;2.60;;;;;;;3.37;64.96;94724.06;5070777;28;20197;-74
2020/12/31 04:12:18;;;;;;;2.50;2.30;;;;;;;3.39;65.04;94717.88;5070800;28;20567;-78
2020/12/31 04:14:44;;;;;;;2.70;2.50;;;;;;;3.43;65.10;94716.63;5070732;28;20220;-77
2020/12/31 04:17:11;;;;;;;2.73;2.50;;;;;;;3.43;65.12;94718.38;5070407;28;20693;-74
2020/12/31 04:19:39;;;;;;;2.73;2.53;;;;;;;3.44;64.94;94715.69;5070240;28;20311;-78
2020/12/31 04:22:06;;;;;;;2.70;2.50;;;;;;;3.41;65.36;94710.88;5070794;28;20220;-75
2020/12/31 04:24:31;;;;;;;3.00;2.80;;;;;;;3.35;65.22;94708.16;5070309;28;20196;-77
2020/12/31 04:26:57;;;;;;;2.83;2.53;;;;;;;3.31;65.88;94711.94;5070140;28;20199;-77
2020/12/31 04:29:23;;;;;;;3.10;2.90;;;;;;;3.30;65.81;94710.34;5070486;28;20192;-78
2020/12/31 04:31:49;;;;;;;3.10;2.80;;;;;;;3.26;66.15;94704.00;5070120;28;20666;-77
2020/12/31 04:34:15;;;;;;;2.93;2.70;;;;;;;3.24;65.78;94704.16;5069791;28;20188;-75
2020/12/31 04:36:41;;;;;;;3.30;3.00;;;;;;;3.23;66.31;94709.38;5070511;28;20700;-78
2020/12/31 04:39:08;;;;;;;3.80;3.00;;;;;;;3.18;66.56;94701.41;5070430;28;20281;-77
2020/12/31 04:41:34;;;;;;;3.30;2.97;;;;;;;3.16;66.22;94701.56;5069941;28;20880;-77
2020/12/31 04:44:01;;;;;;;3.10;2.80;;;;;;;3.10;67.09;94705.50;5069747;28;20285;-74
2020/12/31 04:46:28;;;;;;;2.83;2.63;;;;;;;3.06;67.24;94706.78;5069887;28;20220;-77
2020/12/31 04:48:57;;;;;;;2.97;2.67;;;;;;;3.02;67.59;94700.41;5069656;28;20216;-77
2020/12/31 04:51:25;;;;;;;2.80;2.60;;;;;;;2.97;67.78;94705.13;5069954;28;20250;-77
2020/12/31 04:53:53;;;;;;;3.13;2.83;;;;;;;3.01;67.78;94705.63;5069813;28;20689;-76
2020/12/31 04:56:25;;;;;;;3.80;2.97;;;;;;;2.97;67.89;94701.78;5069793;28;20213;-78
2020/12/31 04:58:51;;;;;;;3.63;3.10;;;;;;;2.98;67.38;94695.75;5069225;28;20244;-78
2020/12/31 05:01:17;;;;;;;2.97;2.67;;;;;;;2.98;67.54;94695.75;5069889;28;20251;-75
2020/12/31 05:03:43;;;;;;;3.03;2.73;;;;;;;3.01;67.70;94693.72;5069965;28;20774;-78
2020/12/31 05:06:13;;;;;;;3.27;2.97;;;;;;;3.01;67.35;94700.56;5069182;28;20280;-78
2020/12/31 05:08:40;;;;;;;2.87;2.63;;;;;;;3.01;67.71;94701.34;5069516;28;20196;-76
2020/12/31 05:11:05;;;;;;;3.83;2.77;;;;;;;3.04;67.55;94707.88;5069349;28;20220;-75
2020/12/31 05:13:42;;;;;;;3.83;2.80;;;;;;;3.04;67.39;94707.88;5069567;28;20602;-78
2020/12/31 05:16:09;;;;;;;3.33;2.80;;;;;;;3.03;67.53;94707.09;5069735;28;20184;-73
2020/12/31 05:18:35;;;;;;;3.20;2.80;;;;;;;3.01;67.55;94714.06;5069545;28;20196;-77
2020/12/31 05:21:01;;;;;;;3.57;2.70;;;;;;;3.03;67.17;94708.81;5069387;28;20323;-77
2020/12/31 05:23:28;;;;;;;3.80;3.40;;;;;;;3.03;67.15;94711.38;5069508;28;20201;-77
2020/12/31 05:25:55;;;;;;;3.07;2.80;;;;;;;3.01;67.24;94708.97;5068732;28;20212;-78
2020/12/31 05:28:23;;;;;;;2.87;2.60;;;;;;;2.98;67.18;94699.09;5069290;28;20193;-77
2020/12/31 05:30:51;;;;;;;3.50;2.83;;;;;;;2.97;67.78;94701.78;5069273;28;20223;-77
2020/12/31 05:33:27;;;;;;;3.10;2.80;;;;;;;2.99;67.13;94702.44;5069491;28;20212;-78
2020/12/31 05:36:16;;;;;;;3.20;2.90;;;;;;;2.99;67.55;94697.38;5068887;28;20199;-77
2020/12/31 05:38:42;;;;;;;3.20;2.67;;;;;;;2.93;67.66;94701.28;5069183;28;20228;-75
2020/12/31 05:41:09;;;;;;;2.80;2.50;;;;;;;2.86;67.94;94707.16;5068563;28;20239;-75
2020/12/31 05:43:34;;;;;;;3.40;3.07;;;;;;;2.74;68.21;94699.78;5068843;28;20224;-74
2020/12/31 05:46:06;;;;;;;3.53;3.10;;;;;;;2.77;68.02;94694.38;5069189;28;20611;-77
2020/12/31 05:48:32;;;;;;;3.50;3.20;;;;;;;2.72;68.47;94704.19;5068702;28;20196;-77
2020/12/31 05:50:58;;;;;;;3.20;2.90;;;;;;;2.70;68.45;94697.66;5068401;28;20221;-77
2020/12/31 05:53:24;;;;;;;3.63;2.97;;;;;;;2.66;68.57;94699.75;5068562;28;20200;-76
2020/12/31 05:55:54;;;;;;;3.63;3.23;;;;;;;2.63;68.79;94700.03;5068660;28;20217;-77
2020/12/31 05:58:23;;;;;;;3.87;3.33;;;;;;;2.64;68.81;94695.75;5068793;28;20192;-77
2020/12/31 06:01:01;;;;;;;3.10;2.80;;;;;;;2.52;68.71;94702.81;5068802;28;20259;-77
2020/12/31 06:03:46;;;;;;;3.60;3.30;;;;;;;2.53;69.18;94706.94;5068538;28;20210;-74
2020/12/31 06:06:18;;;;;;;4.03;3.10;;;;;;;2.54;68.81;94700.91;5068837;28;20231;-77
2020/12/31 06:08:54;;;;;;;3.60;2.87;;;;;;;2.51;69.13;94700.41;5068846;28;20196;-74
2020/12/31 06:11:30;;;;;;;4.13;3.03;;;;;;;2.53;68.95;94701.06;5068792;28;20225;-75
2020/12/31 06:13:57;;;;;;;3.43;3.13;;;;;;;2.47;68.69;94705.03;5068262;28;20200;-75
2020/12/31 06:16:26;;;;;;;4.80;3.30;;;;;;;2.44;68.90;94705.31;5068355;28;20209;-77
2020/12/31 06:19:00;;;;;;;3.20;2.90;;;;;;;2.37;69.33;94696.69;5067513;28;20220;-77
2020/12/31 06:21:39;;;;;;;3.20;2.90;;;;;;;2.36;69.34;94703.50;5068531;28;20306;-75
2020/12/31 06:24:11;;;;;;;3.43;3.13;;;;;;;2.40;68.86;94706.53;5068275;28;20672;-77
2020/12/31 06:26:39;;;;;;;4.33;3.00;;;;;;;2.40;68.89;94697.19;5067930;28;20676;-78
2020/12/31 06:29:05;;;;;;;3.43;3.13;;;;;;;2.38;68.77;94704.16;5068779;28;20220;-77
2020/12/31 06:31:31;;;;;;;2.97;2.73;;;;;;;2.44;68.45;94705.31;5070189;28;20747;-79
2020/12/31 06:33:58;;;;;;;2.83;2.40;;;;;;;2.46;68.69;94702.63;5069957;28;20200;-78
2020/12/31 06:36:33;;;;;;;4.17;2.97;;;;;;;2.64;87.01;94711.00;5069079;28;20239;-76
2020/12/31 06:38:59;;;;;;;6.57;2.83;;;;;;;3.39;93.43;94705.16;5048445;28;20332;-75
2020/12/31 06:41:38;;;;;;;3.73;2.77;;;;;;;3.52;67.68;94698.81;5058283;28;20213;-75
2020/12/31 06:44:09;;;;;;;3.10;2.63;;;;;;;3.31;67.41;94700.03;5067307;28;20189;-75
2020/12/31 06:46:42;;;;;;;3.97;2.73;;;;;;;3.12;67.21;94706.16;5067914;28;20193;-74
2020/12/31 06:49:10;;;;;;;13.07;9.50;;;;;;;2.93;68.18;94711.47;5067271;28;20197;-75
2020/12/31 06:51:36;;;;;;;4.80;3.70;;;;;;;2.73;68.45;94710.09;5067412;28;20220;-76
2020/12/31 06:54:03;;;;;;;3.80;2.77;;;;;;;2.50;68.90;94712.34;5067188;28;20598;-76
2020/12/31 06:56:48;;;;;;;4.60;2.93;;;;;;;2.45;69.34;94714.53;5067405;28;20828;-75
2020/12/31 06:59:24;;;;;;;3.33;2.73;;;;;;;2.34;69.63;94709.66;5059216;28;20227;-75
2020/12/31 07:01:50;;;;;;;4.50;3.30;;;;;;;2.33;69.68;94711.41;5067552;28;20875;-75
2020/12/31 07:04:27;;;;;;;3.87;3.00;;;;;;;2.41;69.32;94713.22;5066489;28;20201;-75
2020/12/31 07:06:53;;;;;;;3.50;2.90;;;;;;;2.46;68.76;94717.88;5067682;28;20204;-75
2020/12/31 07:09:31;;;;;;;3.87;3.00;;;;;;;2.45;68.72;94714.53;5067330;28;20189;-74
2020/12/31 07:11:59;;;;;;;3.37;2.70;;;;;;;2.46;68.62;94720.41;5057441;28;20299;-74
2020/12/31 07:14:26;;;;;;;3.20;2.80;;;;;;;2.48;68.65;94721.84;5067099;28;20201;-75
2020/12/31 07:16:57;;;;;;;3.20;2.80;;;;;;;2.53;68.25;94721.38;5067273;28;20691;-75
2020/12/31 07:19:33;;;;;;;3.70;3.00;;;;;;;2.55;68.08;94724.59;5066455;28;20227;-75
2020/12/31 07:21:59;;;;;;;3.10;2.80;;;;;;;2.57;67.64;94720.16;5066510;28;20303;-74
2020/12/31 07:24:28;;;;;;;3.13;2.63;;;;;;;2.54;68.32;94716.16;5066599;28;20200;-75
2020/12/31 07:26:56;;;;;;;3.20;2.90;;;;;;;2.52;67.81;94714.72;5067194;28;20195;-74
2020/12/31 07:29:27;;;;;;;3.10;2.80;;;;;;;2.49;69.04;94720.91;5067433;28;20204;-77
2020/12/31 07:31:53;;;;;;;3.90;3.10;;;;;;;2.46;69.40;94710.25;5067067;28;20213;-75
2020/12/31 07:34:20;;;;;;;3.57;3.10;;;;;;;2.54;68.22;94716.16;5066915;28;20238;-77
2020/12/31 07:36:57;;;;;;;2.93;2.67;;;;;;;2.56;67.70;94713.47;5067606;28;20774;-74
2020/12/31 07:39:24;;;;;;;2.90;2.60;;;;;;;2.51;67.80;94711.38;5066416;28;20633;-78
2020/12/31 07:41:50;;;;;;;3.23;2.83;;;;;;;2.53;68.46;94711.22;5066465;28;20213;-75
2020/12/31 07:44:16;;;;;;;2.70;2.50;;;;;;;2.48;68.08;94708.34;5065497;28;20208;-76
2020/12/31 07:46:43;;;;;;;2.90;2.60;;;;;;;2.52;67.99;94710.44;5066589;28;20629;-77
2020/12/31 07:49:10;;;;;;;2.90;2.60;;;;;;;2.59;68.09;94711.44;5066900;28;20197;-73
2020/12/31 07:51:36;;;;;;;3.30;2.70;;;;;;;2.61;67.96;94712.09;5066728;28;20278;-75
2020/12/31 07:54:03;;;;;;;6.20;4.87;;;;;;;2.95;91.81;94718.94;5065739;28;20197;-75
2020/12/31 07:56:31;;;;;;;3.57;2.93;;;;;;;3.68;91.82;94712.38;5066498;28;20211;-74
2020/12/31 07:59:01;;;;;;;5.23;3.43;;;;;;;4.48;90.04;94710.06;5067305;28;20592;-76
2020/12/31 08:01:27;;;;;;;3.60;3.30;;;;;;;4.68;67.47;94703.66;5066792;28;20930;-78
2020/12/31 08:03:53;;;;;;;3.80;3.27;;;;;;;4.44;64.58;94699.38;5066940;28;20208;-74
2020/12/31 08:06:27;;;;;;;3.67;3.23;;;;;;;4.26;63.96;94696.22;5067131;28;20847;-76
2020/12/31 08:08:53;;;;;;;4.17;3.17;;;;;;;4.14;64.13;94695.75;5052481;28;20192;-78
2020/12/31 08:11:20;;;;;;;3.30;3.00;;;;;;;4.04;64.17;94692.53;5065819;28;20274;-75
2020/12/31 08:13:47;;;;;;;2.93;2.60;;;;;;;4.03;63.98;94697.81;5066092;28;20224;-78
2020/12/31 08:16:14;;;;;;;3.07;2.67;;;;;;;4.06;63.87;94682.19;5065881;28;20200;-75
2020/12/31 08:18:44;;;;;;;2.53;2.23;;;;;;;4.06;63.14;94687.28;5066610;28;20280;-74
2020/12/31 08:21:10;;;;;;;3.43;2.83;;;;;;;4.16;63.02;94690.50;5066268;28;20232;-75
2020/12/31 08:23:39;;;;;;;2.83;2.60;;;;;;;4.20;62.22;94696.06;5066185;28;20197;-74
2020/12/31 08:26:09;;;;;;;3.03;2.40;;;;;;;4.25;62.14;94688.72;5065556;28;20193;-74
2020/12/31 08:28:37;;;;;;;2.60;2.30;;;;;;;4.31;61.60;94677.91;5065705;28;20193;-75
2020/12/31 08:31:10;;;;;;;2.50;2.30;;;;;;;4.40;61.22;94679.50;5065862;28;20770;-74
2020/12/31 08:33:39;;;;;;;2.67;2.40;;;;;;;4.28;61.29;94681.56;5068249;28;20275;-75
2020/12/31 08:36:06;;;;;;;6.53;4.47;;;;;;;4.37;61.09;94682.38;5070367;28;20655;-75
2020/12/31 08:38:38;;;;;;;4.00;2.87;;;;;;;4.40;60.87;94682.84;5070274;28;20197;-72
2020/12/31 08:41:07;;;;;;;2.17;1.97;;;;;;;4.47;60.34;94681.22;5069404;28;20708;-75
2020/12/31 08:43:35;;;;;;;2.37;2.17;;;;;;;4.30;60.42;94673.75;5066619;28;20204;-77
2020/12/31 08:46:04;;;;;;;2.33;2.00;;;;;;;4.31;60.09;94681.25;5067720;28;20197;-77
2020/12/31 08:48:31;;;;;;;1.90;1.80;;;;;;;4.39;60.23;94675.34;5069149;28;20189;-75
2020/12/31 08:51:02;;;;;;;2.60;2.10;;;;;;;4.50;59.86;94665.63;5068997;28;20208;-74
2020/12/31 08:53:29;;;;;;;2.00;1.80;;;;;;;4.35;59.13;94667.22;5068972;28;20200;-75
2020/12/31 08:55:55;;;;;;;2.30;2.10;;;;;;;4.33;59.67;94670.91;5066143;28;20215;-74
2020/12/31 08:58:26;;;;;;;2.13;1.93;;;;;;;4.11;59.79;94669.78;5052558;28;20947;-75
2020/12/31 09:00:52;;;;;;;2.50;2.10;;;;;;;4.00;60.18;94668.38;5058106;28;20268;-75
2020/12/31 09:03:20;;;;;;;2.63;2.40;;;;;;;4.08;60.43;94668.34;5067807;28;20661;-75
2020/12/31 09:05:56;;;;;;;2.67;2.40;;;;;;;4.11;60.65;94662.16;5068840;28;20618;-74
2020/12/31 09:08:22;;;;;;;2.73;2.40;;;;;;;4.23;59.54;94665.19;5065731;28;20201;-75
2020/12/31 09:10:48;;;;;;;2.40;2.20;;;;;;;4.24;59.97;94659.91;5068390;28;20213;-75
2020/12/31 09:13:19;;;;;;;13.37;2.67;;;;;;;4.64;63.12;94659.03;5069127;28;20210;-76
2020/12/31 09:15:45;;;;;;;16.93;3.23;;;;;;;4.94;62.66;94649.91;5068780;28;20193;-76
2020/12/31 09:18:16;;;;;;;2.60;2.40;;;;;;;5.01;59.47;94650.00;5069154;28;20227;-76
2020/12/31 09:20:43;;;;;;;2.63;2.43;;;;;;;4.98;58.08;94643.50;5068294;28;20232;-75
2020/12/31 09:23:11;;;;;;;13.27;2.73;;;;;;;4.85;57.81;94648.31;5068462;28;20205;-75
2020/12/31 09:25:48;;;;;;;4.93;2.57;;;;;;;4.78;57.75;94645.66;5068625;28;20201;-75
2020/12/31 09:28:14;;;;;;;6.20;2.50;;;;;;;4.73;57.40;94634.34;5067871;28;20201;-74
2020/12/31 09:30:40;;;;;;;3.30;2.33;;;;;;;4.76;59.66;94631.47;5068023;28;20208;-74
2020/12/31 09:33:06;;;;;;;2.60;2.40;;;;;;;4.80;56.83;94630.19;5068228;28;20823;-75
2020/12/31 09:35:32;;;;;;;2.83;2.17;;;;;;;4.85;56.53;94627.91;5068188;28;20892;-74
2020/12/31 09:37:59;;;;;;;3.43;2.17;;;;;;;4.97;56.62;94626.63;5067582;28;20196;-74
2020/12/31 09:40:26;;;;;;;2.40;2.20;;;;;;;4.95;55.75;94633.63;5067522;28;20223;-74
2020/12/31 09:42:52;;;;;;;1.90;1.80;;;;;;;4.78;55.78;94627.00;5068208;28;20193;-73
2020/12/31 09:45:19;;;;;;;2.10;1.90;;;;;;;4.96;56.05;94626.78;5067089;28;20189;-74
2020/12/31 09:47:45;;;;;;;2.23;2.03;;;;;;;5.01;55.50;94622.75;5067565;28;20189;-73
2020/12/31 09:50:11;;;;;;;2.50;2.30;;;;;;;5.17;55.62;94621.91;5067182;28;20223;-73
2020/12/31 09:52:38;;;;;;;2.53;1.97;;;;;;;5.07;54.74;94626.41;5067461;28;20224;-74
2020/12/31 09:55:06;;;;;;;2.37;2.10;;;;;;;4.92;54.29;94626.31;5067266;28;20644;-74
2020/12/31 09:57:32;;;;;;;2.00;1.83;;;;;;;4.86;54.38;94621.84;5068073;28;20246;-73
2020/12/31 09:59:58;;;;;;;2.17;1.97;;;;;;;4.80;54.86;94612.34;5067899;28;20216;-75
2020/12/31 10:02:24;;;;;;;1.83;1.73;;;;;;;4.69;54.34;94612.69;5068136;28;20221;-74
2020/12/31 10:04:50;;;;;;;2.03;1.77;;;;;;;4.70;54.53;94607.41;5067377;28;20201;-74
2020/12/31 10:07:16;;;;;;;3.13;2.00;;;;;;;4.59;54.89;94610.34;5067489;28;20204;-76
2020/12/31 10:09:42;;;;;;;3.03;1.90;;;;;;;4.57;55.37;94608.91;5067665;28;20215;-74
2020/12/31 10:12:12;;;;;;;2.30;2.00;;;;;;;4.63;55.18;94600.56;5067409;28;20216;-74
2020/12/31 10:14:40;;;;;;;11.43;7.57;;;;;;;4.84;54.92;94588.06;5067474;28;20620;-74
2020/12/31 10:17:06;;;;;;;2.80;2.20;;;;;;;5.08;54.56;94579.53;5067158;28;20254;-73
2020/12/31 10:19:31;;;;;;;2.00;1.80;;;;;;;4.98;54.33;94576.41;5067399;28;20216;-75
2020/12/31 10:21:57;;;;;;;2.10;1.90;;;;;;;4.93;53.58;94571.78;5066926;28;20224;-74
2020/12/31 10:24:23;;;;;;;2.13;2.00;;;;;;;5.03;53.98;94566.47;5066745;28;20197;-74
2020/12/31 10:26:49;;;;;;;2.93;2.10;;;;;;;5.06;53.67;94566.13;5066728;28;20204;-75
2020/12/31 10:29:16;;;;;;;2.30;2.10;;;;;;;4.93;53.04;94568.44;5066836;28;20591;-75
2020/12/31 10:31:42;;;;;;;2.33;2.10;;;;;;;4.96;53.33;94570.66;5066658;28;20739;-75
2020/12/31 10:34:09;;;;;;;1.70;1.60;;;;;;;4.95;52.93;94567.31;5066430;28;20560;-74
2020/12/31 10:36:35;;;;;;;3.73;1.90;;;;;;;5.02;52.87;94557.22;5066566;28;20811;-75
2020/12/31 10:39:02;;;;;;;1.80;1.67;;;;;;;4.93;52.23;94551.38;5066962;28;20201;-74
2020/12/31 10:41:29;;;;;;;2.40;1.80;;;;;;;5.08;52.39;94544.59;5066045;28;20771;-81
2020/12/31 10:43:56;;;;;;;2.00;1.80;;;;;;;5.31;51.84;94549.72;5065360;28;20208;-74
2020/12/31 10:46:23;;;;;;;2.20;2.00;;;;;;;5.37;51.49;94543.16;5066661;28;20876;-74
2020/12/31 10:48:49;;;;;;;2.30;2.10;;;;;;;5.31;51.19;94531.88;5066881;28;20236;-74
2020/12/31 10:51:15;;;;;;;3.10;2.00;;;;;;;5.33;51.31;94540.16;5065528;28;20582;-74
2020/12/31 10:53:41;;;;;;;1.93;1.77;;;;;;;5.33;50.51;94536.81;5066560;28;20193;-74
2020/12/31 10:56:07;;;;;;;3.60;1.60;;;;;;;5.27;50.32;94535.72;5065071;28;20207;-75
2020/12/31 10:58:35;;;;;;;2.27;1.67;;;;;;;5.08;50.83;94520.84;5066327;28;20660;-73
2020/12/31 11:01:01;;;;;;;2.00;1.70;;;;;;;5.12;51.04;94525.47;5066317;28;20216;-74
2020/12/31 11:03:28;;;;;;;1.87;1.60;;;;;;;5.22;50.54;94520.13;5066502;28;20711;-74
2020/12/31 11:05:53;;;;;;;1.67;1.57;;;;;;;5.34;49.81;94523.88;5066366;28;20193;-72
2020/12/31 11:08:19;;;;;;;2.30;1.73;;;;;;;5.47;49.99;94502.88;5066223;28;20694;-73
2020/12/31 11:10:47;;;;;;;2.37;2.07;;;;;;;5.51;49.85;94510.03;5065550;28;20715;-73
2020/12/31 11:13:12;;;;;;;2.40;2.20;;;;;;;5.62;50.06;94498.59;5066203;28;20197;-74
2020/12/31 11:15:39;;;;;;;3.80;1.87;;;;;;;5.68;49.70;94492.81;5066121;28;20574;-74
2020/12/31 11:18:05;;;;;;;2.37;1.80;;;;;;;5.81;50.00;94498.09;5065633;28;20196;-74
2020/12/31 11:20:32;;;;;;;2.40;1.87;;;;;;;5.93;49.91;94485.75;5065587;28;20212;-74
2020/12/31 11:22:58;;;;;;;2.37;1.93;;;;;;;6.09;49.58;94485.59;5065896;28;20208;-74
2020/12/31 11:25:24;;;;;;;3.10;2.00;;;;;;;6.27;49.48;94482.66;5065444;28;20189;-73
2020/12/31 11:27:50;;;;;;;2.33;1.97;;;;;;;6.35;49.19;94474.13;5066316;28;20207;-74
2020/12/31 11:30:16;;;;;;;2.40;2.20;;;;;;;6.27;49.35;94474.22;5065798;28;20213;-74
2020/12/31 11:32:42;;;;;;;3.10;2.10;;;;;;;6.39;49.28;94472.78;5066256;28;20829;-74
2020/12/31 11:35:08;;;;;;;2.50;2.30;;;;;;;6.52;49.61;94472.97;5065687;28;20199;-73
2020/12/31 11:37:36;;;;;;;2.10;1.90;;;;;;;6.51;48.79;94456.81;5066058;28;20189;-76
2020/12/31 11:40:03;;;;;;;3.60;2.00;;;;;;;6.69;49.34;94455.63;5065497;28;20671;-76
2020/12/31 11:42:32;;;;;;;4.03;2.10;;;;;;;6.74;48.05;94455.88;5066119;28;20189;-74